Time;durP1;ratioP1;P1;durP2;ratioP2;P2;SDS_P1;SDS_P2;PMS_P1;PMS_P2;Temp;Humidity;BMP_temperature;BMP_pressure;BME280_temperature;BME280_humidity;BME280_pressure;Samples;Min_cycle;Max_cycle;Signal;HPM_P1;HPM_P2
2021/07/13 00:00:17;;;;;;;20.35;17.23;;;19.00;99.90;;;;;;5033134;28;20025;-54
2021/07/13 00:02:43;;;;;;;19.77;16.55;;;19.00;99.90;;;;;;5032807;28;20022;-54
2021/07/13 00:05:15;;;;;;;19.40;16.88;;;18.90;99.90;;;;;;5033141;28;20037;-55
2021/07/13 00:07:43;;;;;;;20.08;17.98;;;18.90;99.90;;;;;;5032966;28;20108;-55
2021/07/13 00:10:09;;;;;;;19.92;17.95;;;18.90;99.90;;;;;;5032780;28;20478;-54
2021/07/13 00:12:35;;;;;;;21.52;18.42;;;18.80;99.90;;;;;;5032953;28;20108;-54
2021/07/13 00:15:03;;;;;;;20.55;18.45;;;18.80;99.90;;;;;;5032883;28;20036;-54
2021/07/13 00:17:29;;;;;;;23.05;19.80;;;18.80;99.90;;;;;;5032699;28;20049;-54
2021/07/13 00:19:54;;;;;;;22.60;20.30;;;18.80;99.90;;;;;;5032773;28;20025;-54
2021/07/13 00:22:20;;;;;;;21.30;18.77;;;18.80;99.90;;;;;;5032506;28;20021;-54
2021/07/13 00:24:45;;;;;;;22.60;20.17;;;18.70;99.90;;;;;;5032900;28;20025;-54
2021/07/13 00:27:11;;;;;;;23.92;21.45;;;18.70;99.90;;;;;;5032696;28;20021;-54
2021/07/13 00:29:37;;;;;;;25.63;22.88;;;18.70;99.90;;;;;;5032644;28;20024;-54
2021/07/13 00:32:02;;;;;;;25.65;22.77;;;18.70;99.90;;;;;;5032513;28;20404;-54
2021/07/13 00:34:28;;;;;;;24.23;21.85;;;18.70;99.90;;;;;;5032087;28;20050;-54
2021/07/13 00:36:54;;;;;;;22.92;20.52;;;18.70;99.90;;;;;;5032419;28;20100;-54
2021/07/13 00:39:19;;;;;;;23.38;20.88;;;18.60;99.90;;;;;;5032526;28;20036;-54
2021/07/13 00:41:45;;;;;;;26.35;19.67;;;18.50;99.90;;;;;;5032378;28;20083;-54
2021/07/13 00:44:10;;;;;;;25.27;21.20;;;18.50;99.90;;;;;;5031292;28;20060;-54
2021/07/13 00:46:46;;;;;;;29.27;22.35;;;18.50;99.90;;;;;;5032163;28;20296;-54
2021/07/13 00:49:13;;;;;;;25.80;23.05;;;18.50;99.90;;;;;;5032338;28;20021;-54
2021/07/13 00:51:39;;;;;;;27.20;24.25;;;18.50;99.90;;;;;;5032179;28;20040;-54
2021/07/13 00:54:06;;;;;;;25.77;23.05;;;18.50;99.90;;;;;;5032128;28;20022;-54
2021/07/13 00:56:36;;;;;;;26.40;23.25;;;18.50;99.90;;;;;;5032087;28;20497;-54
2021/07/13 00:59:02;;;;;;;27.30;24.38;;;18.40;99.90;;;;;;5031934;28;20075;-56
2021/07/13 01:01:27;;;;;;;28.52;24.58;;;18.40;99.90;;;;;;5030503;28;20469;-55
2021/07/13 01:03:53;;;;;;;26.75;23.88;;;18.40;99.90;;;;;;5031670;28;20053;-55
2021/07/13 01:06:21;;;;;;;29.33;25.60;;;18.40;99.90;;;;;;5031772;28;20028;-55
2021/07/13 01:08:57;;;;;;;31.58;27.48;;;18.40;99.90;;;;;;5032039;28;20025;-55
2021/07/13 01:11:34;;;;;;;34.50;28.85;;;18.30;99.90;;;;;;5031926;28;20021;-55
2021/07/13 01:14:13;;;;;;;36.50;32.25;;;18.30;99.90;;;;;;5030530;28;20525;-55
2021/07/13 01:17:00;;;;;;;38.75;33.85;;;18.30;99.90;;;;;;5031638;28;20038;-54
2021/07/13 01:19:33;;;;;;;42.63;35.80;;;18.30;99.90;;;;;;5031602;28;20025;-54
2021/07/13 01:22:02;;;;;;;41.40;35.42;;;18.30;99.90;;;;;;5031595;28;20033;-54
2021/07/13 01:24:48;;;;;;;43.53;35.42;;;18.30;99.90;;;;;;5031542;28;20032;-54
2021/07/13 01:27:49;;;;;;;45.08;35.85;;;18.20;99.90;;;;;;5017200;28;20538;-55
2021/07/13 01:30:20;;;;;;;45.50;37.85;;;18.20;99.90;;;;;;5005814;28;20502;-55
2021/07/13 01:32:50;;;;;;;41.40;35.70;;;18.30;99.90;;;;;;5029845;28;20071;-55
2021/07/13 01:35:22;;;;;;;45.58;36.50;;;18.20;99.90;;;;;;5031475;28;20029;-55
2021/07/13 01:37:50;;;;;;;;;;;18.20;99.90;;;;;;5031888;28;20033;-54
2021/07/13 01:40:18;;;;;;;47.28;38.15;;;18.20;99.90;;;;;;5031310;28;19905;-55
2021/07/13 01:42:44;;;;;;;50.10;41.42;;;18.30;99.90;;;;;;5031207;28;20032;-55
2021/07/13 01:45:10;;;;;;;49.25;40.03;;;18.30;99.90;;;;;;5031475;28;20087;-55
2021/07/13 01:47:37;;;;;;;50.45;41.60;;;18.30;99.90;;;;;;5031121;28;20029;-54
2021/07/13 01:50:05;;;;;;;49.78;41.38;;;18.20;99.90;;;;;;5029929;28;20088;-54
2021/07/13 01:52:33;;;;;;;52.92;40.70;;;18.20;99.90;;;;;;5029673;28;20538;-54
2021/07/13 01:55:01;;;;;;;45.42;39.45;;;18.20;99.90;;;;;;5031166;28;20040;-54
2021/07/13 01:57:28;;;;;;;43.05;37.83;;;18.20;99.90;;;;;;5031289;28;20120;-54
2021/07/13 01:59:54;;;;;;;48.20;35.33;;;18.20;99.90;;;;;;5031207;28;20033;-54
2021/07/13 02:02:21;;;;;;;44.45;37.22;;;18.20;99.90;;;;;;5031078;28;20022;-54
2021/07/13 02:04:48;;;;;;;49.65;38.85;;;18.20;99.90;;;;;;5031182;28;20022;-54
2021/07/13 02:07:15;;;;;;;48.08;38.25;;;18.20;99.90;;;;;;5030936;28;20047;-54
2021/07/13 02:09:43;;;;;;;48.00;39.80;;;18.20;99.90;;;;;;5030982;28;20029;-55
2021/07/13 02:12:10;;;;;;;48.15;38.95;;;18.40;99.90;;;;;;5031163;28;20578;-55
2021/07/13 02:14:36;;;;;;;47.80;39.75;;;18.40;99.90;;;;;;5030736;28;20405;-55
2021/07/13 02:17:03;;;;;;;49.38;40.35;;;18.30;99.90;;;;;;5033721;28;20060;-55
2021/07/13 02:19:28;;;;;;;45.78;40.78;;;18.20;99.90;;;;;;5035014;28;20018;-55
2021/07/13 02:21:56;;;;;;;49.30;40.55;;;18.30;99.90;;;;;;5035375;28;20482;-55
2021/07/13 02:24:22;;;;;;;53.88;42.03;;;18.30;99.90;;;;;;5034822;28;20036;-55
2021/07/13 02:26:54;;;;;;;48.22;41.47;;;18.30;99.90;;;;;;5034738;28;20041;-55
2021/07/13 02:29:36;;;;;;;45.40;40.17;;;18.40;99.90;;;;;;5034685;28;20071;-55
2021/07/13 02:32:07;;;;;;;48.55;41.22;;;18.50;99.90;;;;;;5033530;28;20425;-55
2021/07/13 02:34:36;;;;;;;50.63;41.90;;;18.50;99.90;;;;;;5034967;28;20037;-55
2021/07/13 02:37:03;;;;;;;52.97;41.63;;;18.50;99.90;;;;;;5034575;28;20071;-54
2021/07/13 02:39:31;;;;;;;51.85;40.03;;;18.50;99.90;;;;;;5034437;28;20057;-55
2021/07/13 02:41:59;;;;;;;44.92;39.95;;;18.50;99.90;;;;;;5034590;28;20033;-54
2021/07/13 02:44:28;;;;;;;46.58;39.42;;;18.50;99.90;;;;;;5034578;28;20022;-55
2021/07/13 02:46:56;;;;;;;43.05;37.92;;;18.40;99.90;;;;;;5035082;28;20036;-55
2021/07/13 02:49:26;;;;;;;51.85;39.88;;;18.30;99.90;;;;;;5034357;28;20028;-54
2021/07/13 02:51:53;;;;;;;46.55;39.00;;;18.20;99.90;;;;;;5033211;28;20021;-55
2021/07/13 02:54:21;;;;;;;52.13;40.45;;;18.10;99.90;;;;;;5033303;28;20028;-55
2021/07/13 02:56:48;;;;;;;47.17;40.40;;;18.10;99.90;;;;;;5034392;28;20031;-55
2021/07/13 02:59:16;;;;;;;47.20;40.08;;;18.00;99.90;;;;;;5034300;28;20130;-54
2021/07/13 03:01:44;;;;;;;53.65;40.38;;;18.00;99.90;;;;;;5034202;28;20048;-55
2021/07/13 03:04:10;;;;;;;49.25;42.65;;;17.90;99.90;;;;;;5034042;28;20033;-55
2021/07/13 03:06:36;;;;;;;57.40;43.63;;;17.90;99.90;;;;;;5034096;28;20028;-55
2021/07/13 03:09:05;;;;;;;60.28;46.45;;;17.90;99.90;;;;;;5034187;28;20092;-55
2021/07/13 03:11:33;;;;;;;69.15;47.95;;;17.90;99.90;;;;;;5034055;28;20041;-55
2021/07/13 03:14:05;;;;;;;72.00;50.10;;;17.90;99.90;;;;;;5034657;28;20024;-54
2021/07/13 03:16:32;;;;;;;73.57;50.67;;;17.90;99.90;;;;;;5034097;28;20501;-54
2021/07/13 03:19:03;;;;;;;83.30;53.00;;;17.90;99.90;;;;;;5032660;28;20036;-55
2021/07/13 03:21:31;;;;;;;83.70;54.20;;;17.90;99.90;;;;;;5033865;28;20040;-54
2021/07/13 03:24:00;;;;;;;87.70;54.22;;;17.90;99.90;;;;;;5033873;28;20543;-54
2021/07/13 03:26:32;;;;;;;91.28;54.33;;;17.80;99.90;;;;;;5033576;28;20024;-54
2021/07/13 03:28:59;;;;;;;93.28;54.42;;;17.80;99.90;;;;;;5033595;28;20025;-54
2021/07/13 03:31:26;;;;;;;100.60;53.80;;;17.80;99.90;;;;;;5033700;28;20029;-54
2021/07/13 03:33:57;;;;;;;95.45;56.15;;;17.80;99.90;;;;;;5033540;28;20092;-55
2021/07/13 03:36:24;;;;;;;97.13;60.28;;;17.70;99.90;;;;;;5033674;28;20467;-55
2021/07/13 03:38:50;;;;;;;103.15;60.20;;;17.70;99.90;;;;;;5033580;28;20025;-55
2021/07/13 03:41:25;;;;;;;116.95;63.40;;;17.70;99.90;;;;;;5033458;28;20395;-55
2021/07/13 03:43:51;;;;;;;118.80;61.53;;;17.70;99.90;;;;;;5033489;28;20025;-55
2021/07/13 03:46:17;;;;;;;113.28;64.50;;;17.60;99.90;;;;;;5033445;28;20032;-54
2021/07/13 03:48:46;;;;;;;119.72;65.07;;;17.60;99.90;;;;;;5033514;28;20076;-54
2021/07/13 03:51:25;;;;;;;117.63;65.82;;;17.60;99.90;;;;;;5032135;28;20022;-55
2021/07/13 03:53:50;;;;;;;115.70;67.13;;;17.60;99.90;;;;;;5033443;28;20053;-55
2021/07/13 03:56:16;;;;;;;144.57;69.53;;;17.70;99.90;;;;;;5033304;28;20061;-55
2021/07/13 03:58:42;;;;;;;133.68;71.57;;;17.70;99.90;;;;;;5033241;28;20036;-55
2021/07/13 04:01:07;;;;;;;134.52;71.90;;;17.70;99.90;;;;;;5033274;28;20026;-55
2021/07/13 04:03:33;;;;;;;129.10;72.65;;;17.80;99.90;;;;;;5033239;28;20036;-55
2021/07/13 04:05:59;;;;;;;141.15;72.40;;;17.80;99.90;;;;;;5033102;28;20043;-55
2021/07/13 04:08:24;;;;;;;209.90;80.50;;;17.80;99.90;;;;;;5033106;28;20018;-55
2021/07/13 04:10:50;;;;;;;184.65;83.38;;;18.10;99.90;;;;;;5033188;28;20022;-55
2021/07/13 04:13:15;;;;;;;149.93;81.25;;;18.20;99.90;;;;;;5031869;28;20029;-55
2021/07/13 04:15:42;;;;;;;140.73;75.93;;;18.20;99.90;;;;;;5032933;28;20614;-55
2021/07/13 04:18:08;;;;;;;132.15;74.78;;;18.10;99.90;;;;;;5032861;28;20049;-55
2021/07/13 04:20:33;;;;;;;130.20;73.88;;;18.10;99.90;;;;;;5032890;28;20057;-55
2021/07/13 04:22:59;;;;;;;126.25;74.13;;;18.10;99.90;;;;;;5032520;28;20052;-55
2021/07/13 04:25:24;;;;;;;128.63;75.18;;;18.10;99.90;;;;;;5032733;28;20503;-55
2021/07/13 04:27:50;;;;;;;131.85;74.30;;;18.10;99.90;;;;;;5032521;28;20021;-55
2021/07/13 04:30:16;;;;;;;126.38;73.18;;;18.10;99.90;;;;;;5032553;28;20505;-55
2021/07/13 04:32:41;;;;;;;137.30;75.05;;;18.00;99.90;;;;;;5032416;28;20030;-55
2021/07/13 04:35:08;;;;;;;129.82;74.55;;;18.20;99.90;;;;;;5032452;28;20050;-55
2021/07/13 04:37:33;;;;;;;150.02;79.65;;;18.10;99.90;;;;;;5031856;28;20079;-56
2021/07/13 04:39:59;;;;;;;156.10;83.88;;;18.10;99.90;;;;;;5032346;28;20038;-55
2021/07/13 04:42:25;;;;;;;158.77;83.43;;;18.10;99.90;;;;;;5032455;28;20441;-56
2021/07/13 04:44:50;;;;;;;155.55;83.85;;;18.00;99.90;;;;;;5032433;28;20032;-55
2021/07/13 04:47:16;;;;;;;156.25;85.13;;;18.00;99.90;;;;;;5032265;28;20033;-55
2021/07/13 04:49:41;;;;;;;154.75;86.07;;;18.00;99.90;;;;;;5032042;28;20080;-55
2021/07/13 04:52:07;;;;;;;159.32;84.63;;;18.10;99.90;;;;;;5030807;28;20409;-55
2021/07/13 04:54:33;;;;;;;152.63;81.07;;;18.10;99.90;;;;;;5032215;28;20029;-55
2021/07/13 04:57:00;;;;;;;149.10;81.32;;;18.00;99.90;;;;;;5032099;28;20021;-55
2021/07/13 04:59:25;;;;;;;145.98;82.95;;;18.00;99.90;;;;;;5032005;28;20018;-55
2021/07/13 05:01:51;;;;;;;150.88;81.63;;;18.00;99.90;;;;;;5031976;28;20084;-55
2021/07/13 05:04:16;;;;;;;153.70;81.57;;;18.10;99.90;;;;;;5031882;28;20029;-55
2021/07/13 05:06:42;;;;;;;148.70;81.53;;;18.10;99.90;;;;;;5031822;28;20021;-55
2021/07/13 05:09:08;;;;;;;157.82;82.38;;;18.10;99.90;;;;;;5031785;28;20056;-55
2021/07/13 05:11:33;;;;;;;162.68;82.75;;;18.10;99.90;;;;;;5031701;28;20076;-55
2021/07/13 05:14:04;;;;;;;173.68;85.53;;;18.20;99.90;;;;;;5031823;28;20033;-55
2021/07/13 05:16:30;;;;;;;188.00;87.78;;;18.20;99.90;;;;;;5031694;28;20064;-55
2021/07/13 05:18:58;;;;;;;188.60;88.20;;;18.20;99.90;;;;;;5031755;28;20029;-55
2021/07/13 05:21:24;;;;;;;173.95;86.18;;;18.30;99.90;;;;;;5032000;28;20029;-55
2021/07/13 05:23:50;;;;;;;173.68;85.22;;;18.30;99.90;;;;;;5032112;28;20450;-56
2021/07/13 05:26:16;;;;;;;169.27;83.15;;;18.20;99.90;;;;;;5031539;28;20331;-55
2021/07/13 05:28:42;;;;;;;170.10;81.18;;;18.30;99.90;;;;;;5029980;28;20029;-55
2021/07/13 05:31:07;;;;;;;162.55;79.72;;;18.30;99.90;;;;;;5031368;28;20352;-55
2021/07/13 05:33:33;;;;;;;158.93;77.47;;;18.40;99.90;;;;;;5031021;28;20125;-55
2021/07/13 05:35:59;;;;;;;155.38;74.80;;;18.40;99.90;;;;;;5031341;28;20037;-55
2021/07/13 05:38:25;;;;;;;139.23;73.40;;;18.40;99.90;;;;;;5031291;28;20497;-55
2021/07/13 05:40:50;;;;;;;146.48;75.05;;;18.50;99.90;;;;;;5031409;28;20071;-55
2021/07/13 05:43:17;;;;;;;140.60;73.32;;;18.60;99.90;;;;;;5031324;28;20096;-55
2021/07/13 05:45:44;;;;;;;139.93;71.13;;;18.60;99.90;;;;;;5031103;28;20022;-55
2021/07/13 05:48:10;;;;;;;137.88;73.20;;;18.70;99.90;;;;;;5031145;28;20699;-55
2021/07/13 05:50:36;;;;;;;134.35;72.72;;;18.70;99.90;;;;;;5030466;28;20096;-55
2021/07/13 05:53:02;;;;;;;132.15;72.28;;;18.80;99.90;;;;;;5031142;28;20447;-55
2021/07/13 05:55:28;;;;;;;135.13;72.75;;;18.80;99.90;;;;;;5031886;28;20047;-55
2021/07/13 05:57:53;;;;;;;128.15;71.25;;;18.80;99.90;;;;;;5030980;28;20538;-55
2021/07/13 06:00:19;;;;;;;128.13;70.40;;;18.80;99.90;;;;;;5031092;28;20039;-55
2021/07/13 06:02:45;;;;;;;130.75;69.25;;;18.80;99.90;;;;;;5029645;28;20026;-55
2021/07/13 06:05:11;;;;;;;119.68;69.05;;;19.00;99.90;;;;;;5030920;28;20125;-55
2021/07/13 06:07:44;;;;;;;120.60;67.82;;;18.90;99.90;;;;;;5030811;28;20026;-55
2021/07/13 06:10:10;;;;;;;121.18;67.53;;;19.00;99.90;;;;;;5030819;28;20075;-55
2021/07/13 06:12:36;;;;;;;118.25;68.65;;;19.00;99.90;;;;;;5030765;28;20109;-55
2021/07/13 06:15:06;;;;;;;114.82;66.15;;;19.10;99.90;;;;;;5030938;28;20109;-55
2021/07/13 06:17:31;;;;;;;115.80;66.70;;;19.10;99.90;;;;;;5029613;28;20109;-55
2021/07/13 06:19:57;;;;;;;115.47;66.45;;;19.10;99.90;;;;;;5030791;28;20475;-55
2021/07/13 06:22:23;;;;;;;119.00;67.93;;;19.30;99.90;;;;;;5030734;28;20029;-55
2021/07/13 06:24:48;;;;;;;111.03;66.97;;;19.30;99.90;;;;;;5031203;28;20482;-55
2021/07/13 06:27:14;;;;;;;115.82;67.20;;;19.20;99.90;;;;;;5030859;28;20022;-55
2021/07/13 06:29:39;;;;;;;109.82;64.90;;;19.20;99.90;;;;;;5031009;28;20105;-55
2021/07/13 06:32:06;;;;;;;117.18;65.90;;;19.30;99.90;;;;;;5030712;28;20083;-55
2021/07/13 06:34:32;;;;;;;117.78;66.07;;;19.30;99.90;;;;;;5030550;28;20055;-55
2021/07/13 06:36:58;;;;;;;110.50;66.18;;;19.30;99.90;;;;;;5030657;28;20037;-55
2021/07/13 06:39:23;;;;;;;111.63;66.45;;;19.30;99.90;;;;;;5030899;28;20029;-55
2021/07/13 06:41:49;;;;;;;113.28;66.07;;;19.30;99.90;;;;;;5030729;28;20048;-55
2021/07/13 06:44:14;;;;;;;114.43;64.93;;;19.40;99.90;;;;;;5030737;28;20083;-55
2021/07/13 06:46:40;;;;;;;103.95;63.88;;;19.60;99.90;;;;;;5030621;28;20025;-55
2021/07/13 06:49:06;;;;;;;112.30;64.15;;;19.70;99.90;;;;;;5030881;28;20426;-55
2021/07/13 06:51:31;;;;;;;109.95;65.03;;;19.80;99.90;;;;;;5030543;28;20053;-55
2021/07/13 06:53:57;;;;;;;106.22;62.55;;;20.00;99.90;;;;;;5030831;28;20540;-55
2021/07/13 06:56:22;;;;;;;113.05;63.78;;;20.00;99.90;;;;;;5030517;28;20034;-55
2021/07/13 06:58:48;;;;;;;109.28;63.35;;;20.00;99.90;;;;;;5030482;28;20036;-55
2021/07/13 07:01:14;;;;;;;107.88;63.30;;;20.10;99.90;;;;;;5032804;28;20039;-55
2021/07/13 07:03:39;;;;;;;113.75;64.30;;;20.10;99.90;;;;;;5034405;28;20125;-55
2021/07/13 07:06:05;;;;;;;111.78;65.00;;;20.10;99.90;;;;;;5034168;28;20097;-55
2021/07/13 07:08:31;;;;;;;114.43;67.00;;;20.00;99.90;;;;;;5034073;28;20021;-55
2021/07/13 07:10:57;;;;;;;112.10;65.13;;;20.10;99.90;;;;;;5033999;28;20026;-55
2021/07/13 07:13:23;;;;;;;112.35;67.72;;;20.20;99.90;;;;;;5034083;28;20394;-55
2021/07/13 07:15:48;;;;;;;115.70;66.20;;;20.10;99.90;;;;;;5034355;28;20037;-55
2021/07/13 07:18:14;;;;;;;115.03;65.47;;;20.10;99.90;;;;;;5032571;28;20053;-55
2021/07/13 07:20:40;;;;;;;113.70;66.88;;;20.10;99.90;;;;;;5033991;28;20033;-55
2021/07/13 07:23:06;;;;;;;108.95;66.45;;;20.00;99.90;;;;;;5034073;28;20090;-55
2021/07/13 07:25:31;;;;;;;115.30;66.97;;;19.90;99.90;;;;;;5034002;28;20371;-55
2021/07/13 07:27:59;;;;;;;113.90;68.05;;;20.00;99.90;;;;;;5034207;28;20013;-55
2021/07/13 07:30:26;;;;;;;113.03;67.57;;;20.10;99.90;;;;;;5033794;28;20071;-55
2021/07/13 07:32:51;;;;;;;110.43;69.53;;;20.30;99.90;;;;;;5033663;28;20481;-55
2021/07/13 07:35:18;;;;;;;105.45;65.28;;;20.50;99.90;;;;;;5033515;28;20104;-55
2021/07/13 07:37:44;;;;;;;105.55;66.03;;;20.80;99.90;;;;;;5033392;28;20044;-55
2021/07/13 07:40:17;;;;;;;102.75;64.07;;;20.70;99.90;;;;;;5033205;28;20395;-55
2021/07/13 07:42:43;;;;;;;108.88;68.20;;;20.80;99.90;;;;;;5033593;28;20486;-55
2021/07/13 07:45:09;;;;;;;101.07;64.88;;;20.90;99.90;;;;;;5033536;28;20058;-55
2021/07/13 07:47:35;;;;;;;101.82;63.65;;;20.90;99.90;;;;;;5033414;28;20509;-55
2021/07/13 07:50:02;;;;;;;99.85;62.55;;;20.80;99.90;;;;;;5033159;28;20017;-55
2021/07/13 07:52:27;;;;;;;102.07;62.42;;;20.80;99.90;;;;;;5033348;28;20045;-55
2021/07/13 07:54:53;;;;;;;99.70;63.38;;;20.80;99.90;;;;;;5033403;28;20060;-55
2021/07/13 07:57:18;;;;;;;99.70;65.18;;;20.60;99.90;;;;;;5033167;28;20377;-55
2021/07/13 07:59:44;;;;;;;100.38;63.35;;;20.70;99.90;;;;;;5033230;28;20075;-55
2021/07/13 08:02:09;;;;;;;101.85;63.90;;;20.60;99.90;;;;;;5033016;28;20112;-55
2021/07/13 08:04:35;;;;;;;108.80;67.05;;;20.60;99.90;;;;;;5033263;28;20037;-55
2021/07/13 08:07:02;;;;;;;104.40;66.90;;;20.40;99.90;;;;;;5032963;28;20445;-55
2021/07/13 08:09:27;;;;;;;102.47;66.40;;;20.40;99.90;;;;;;5032960;28;20026;-55
2021/07/13 08:11:53;;;;;;;105.53;64.63;;;20.50;99.90;;;;;;5032130;28;20022;-55
2021/07/13 08:14:19;;;;;;;107.35;65.97;;;20.50;99.90;;;;;;5031480;28;20512;-55
2021/07/13 08:16:45;;;;;;;107.88;66.43;;;20.30;99.90;;;;;;5032906;28;20037;-55
2021/07/13 08:19:11;;;;;;;104.05;65.43;;;20.40;99.90;;;;;;5031449;28;20549;-55
2021/07/13 08:21:36;;;;;;;102.55;64.35;;;20.60;99.90;;;;;;5031793;28;20382;-55
2021/07/13 08:24:03;;;;;;;104.22;65.22;;;20.70;99.90;;;;;;5032845;28;20369;-55
2021/07/13 08:26:28;;;;;;;101.82;66.43;;;20.80;99.90;;;;;;5032693;28;20032;-55
2021/07/13 08:28:54;;;;;;;101.53;65.88;;;20.80;99.90;;;;;;5032689;28;20025;-55
2021/07/13 08:31:20;;;;;;;100.03;64.85;;;20.90;99.90;;;;;;5032803;28;20084;-55
2021/07/13 08:33:46;;;;;;;97.28;63.45;;;21.00;99.90;;;;;;5032658;28;20609;-55
2021/07/13 08:36:12;;;;;;;98.32;62.60;;;21.10;99.90;;;;;;5032377;28;20033;-55
2021/07/13 08:38:38;;;;;;;95.35;64.55;;;21.40;99.90;;;;;;5031141;28;20038;-55
2021/07/13 08:41:04;;;;;;;93.43;61.95;;;21.60;99.90;;;;;;5031227;28;20037;-55
2021/07/13 08:43:30;;;;;;;95.32;62.72;;;21.40;99.90;;;;;;5032700;28;20441;-55
2021/07/13 08:45:56;;;;;;;95.15;62.08;;;21.20;99.90;;;;;;5032399;28;20104;-55
2021/07/13 08:48:25;;;;;;;94.53;61.35;;;21.40;99.90;;;;;;5032307;28;20065;-55
2021/07/13 08:50:58;;;;;;;87.93;60.85;;;21.60;99.90;;;;;;5032214;28;20036;-55
2021/07/13 08:53:24;;;;;;;89.80;58.95;;;21.70;99.90;;;;;;5032449;28;20063;-56
2021/07/13 08:55:54;;;;;;;84.47;59.22;;;21.80;99.90;;;;;;5032186;28;20033;-55
2021/07/13 08:58:21;;;;;;;91.95;59.80;;;21.80;99.90;;;;;;5032386;28;20022;-55
2021/07/13 09:00:46;;;;;;;105.88;61.42;;;21.50;99.90;;;;;;5032147;28;20036;-55
2021/07/13 09:03:14;;;;;;;88.07;61.13;;;21.30;99.90;;;;;;5031779;28;20402;-55
2021/07/13 09:05:44;;;;;;;94.03;60.97;;;21.00;99.90;;;;;;5032251;28;20028;-55
2021/07/13 09:08:18;;;;;;;89.05;60.95;;;21.00;99.90;;;;;;5032320;28;20083;-54
2021/07/13 09:11:06;;;;;;;89.47;62.55;;;20.90;99.90;;;;;;5032226;28;20049;-55
2021/07/13 09:13:44;;;;;;;90.00;63.00;;;20.80;99.90;;;;;;5019514;28;20057;-55
2021/07/13 09:16:18;;;;;;;91.55;62.22;;;21.00;99.90;;;;;;5032069;28;20656;-54
2021/07/13 09:18:46;;;;;;;91.07;63.75;;;21.00;99.90;;;;;;5032010;28;20414;-55
2021/07/13 09:21:26;;;;;;;82.78;60.55;;;21.30;99.90;;;;;;5031931;28;20496;-55
2021/07/13 09:24:06;;;;;;;90.88;63.15;;;21.60;99.90;;;;;;5031614;28;20025;-55
2021/07/13 09:26:52;;;;;;;88.28;62.50;;;21.60;99.90;;;;;;5031694;28;20112;-55
2021/07/13 09:29:42;;;;;;;88.53;61.90;;;21.40;99.90;;;;;;5031572;28;20053;-55
2021/07/13 09:32:24;;;;;;;79.63;57.63;;;21.70;99.90;;;;;;5030697;28;20032;-54
2021/07/13 09:35:02;;;;;;;81.95;58.70;;;22.00;99.90;;;;;;5031537;28;20069;-55
2021/07/13 09:37:29;;;;;;;76.05;55.65;;;22.20;99.90;;;;;;5031493;28;20030;-54
2021/07/13 09:39:57;;;;;;;67.90;51.15;;;22.70;99.90;;;;;;5031558;28;20486;-55
2021/07/13 09:42:24;;;;;;;63.88;50.10;;;23.20;99.90;;;;;;5031190;28;20027;-54
2021/07/13 09:44:50;;;;;;;65.05;50.15;;;23.90;99.90;;;;;;5031785;28;20025;-55
2021/07/13 09:47:29;;;;;;;59.22;48.10;;;24.50;99.90;;;;;;5031274;28;20022;-55
2021/07/13 09:49:54;;;;;;;55.95;44.33;;;25.10;99.90;;;;;;5031209;28;20075;-54
2021/07/13 09:52:24;;;;;;;53.78;43.97;;;25.40;99.90;;;;;;5031292;28;20098;-56
2021/07/13 09:54:50;;;;;;;50.95;42.75;;;25.20;99.90;;;;;;5031211;28;20065;-55
2021/07/13 09:57:18;;;;;;;52.58;41.65;;;25.10;99.90;;;;;;5029967;28;20021;-54
2021/07/13 09:59:45;;;;;;;53.00;41.28;;;24.30;99.90;;;;;;5030986;28;20421;-54
2021/07/13 10:02:11;;;;;;;49.10;41.05;;;23.90;99.90;;;;;;5030959;28;20030;-55
2021/07/13 10:04:39;;;;;;;46.72;40.22;;;23.90;99.90;;;;;;5029815;28;20040;-54
2021/07/13 10:07:16;;;;;;;46.40;39.72;;;23.70;99.90;;;;;;5031061;28;20554;-54
2021/07/13 10:09:48;;;;;;;49.45;40.97;;;23.50;99.90;;;;;;5031176;28;20025;-54
2021/07/13 10:12:19;;;;;;;53.50;39.23;;;23.50;99.90;;;;;;5030982;28;20022;-55
2021/07/13 10:14:47;;;;;;;44.08;38.70;;;23.20;99.90;;;;;;5031117;28;20314;-55
2021/07/13 10:17:14;;;;;;;48.88;41.15;;;23.10;99.90;;;;;;5030891;28;20021;-54
2021/07/13 10:20:04;;;;;;;46.40;40.63;;;23.20;99.90;;;;;;5029580;28;20545;-54
2021/07/13 10:22:30;;;;;;;44.40;39.40;;;23.40;99.90;;;;;;5030324;28;20037;-55
2021/07/13 10:24:59;;;;;;;51.20;43.15;;;23.20;99.90;;;;;;5031091;28;20029;-55
2021/07/13 10:27:33;;;;;;;50.78;40.67;;;23.60;99.90;;;;;;5031101;28;20044;-55
2021/07/13 10:30:03;;;;;;;47.50;38.45;;;23.50;99.90;;;;;;5030837;28;20056;-55
2021/07/13 10:32:30;;;;;;;47.47;37.63;;;23.20;99.90;;;;;;5030785;28;20071;-55
2021/07/13 10:34:56;;;;;;;41.33;35.28;;;23.40;99.90;;;;;;5030686;28;20053;-55
2021/07/13 10:37:42;;;;;;;41.13;34.50;;;23.60;99.90;;;;;;5033590;28;20025;-55
2021/07/13 10:40:33;;;;;;;40.83;34.67;;;23.60;99.90;;;;;;5034792;28;20017;-55
2021/07/13 10:43:02;;;;;;;37.78;33.67;;;23.60;99.90;;;;;;5023569;28;20037;-55
2021/07/13 10:45:27;;;;;;;38.22;34.13;;;24.00;99.90;;;;;;5034744;28;20026;-55
2021/07/13 10:47:59;;;;;;;36.90;32.90;;;24.40;99.90;;;;;;5033442;28;20074;-55
2021/07/13 10:50:25;;;;;;;38.95;33.33;;;24.60;99.90;;;;;;5034783;28;20021;-55
2021/07/13 10:52:58;;;;;;;39.13;34.83;;;24.40;99.90;;;;;;5034597;28;20418;-55
2021/07/13 10:55:30;;;;;;;38.30;34.00;;;24.50;99.90;;;;;;5034825;28;20029;-55
2021/07/13 10:58:17;;;;;;;38.07;33.10;;;24.30;99.90;;;;;;5033847;28;20030;-55
2021/07/13 11:00:53;;;;;;;40.25;33.55;;;24.20;99.90;;;;;;5030948;28;20490;-55
2021/07/13 11:03:31;;;;;;;52.53;42.70;;;23.80;99.90;;;;;;5033536;28;20048;-53
2021/07/13 11:06:05;;;;;;;53.10;44.35;;;23.30;99.90;;;;;;5034242;28;20022;-54
2021/07/13 11:08:49;;;;;;;60.72;45.97;;;22.90;99.90;;;;;;5033797;28;20501;-53
2021/07/13 11:11:15;;;;;;;62.38;47.80;;;22.60;99.90;;;;;;5014447;28;20025;-54
2021/07/13 11:13:52;;;;;;;60.38;47.72;;;22.10;99.90;;;;;;5027755;28;20025;-55
2021/07/13 11:16:36;;;;;;;72.03;50.42;;;21.50;99.90;;;;;;5033758;28;20043;-55
2021/07/13 11:19:04;;;;;;;85.30;59.00;;;21.00;99.90;;;;;;5033899;28;20079;-64
2021/07/13 11:21:35;;;;;;;85.45;60.95;;;20.50;99.90;;;;;;5033630;28;20440;-61
2021/07/13 11:24:07;;;;;;;98.40;63.20;;;20.40;99.90;;;;;;5034095;28;20389;-63
2021/07/13 11:26:37;;;;;;;90.97;62.70;;;20.40;99.90;;;;;;5033937;28;20057;-64
2021/07/13 11:29:13;;;;;;;94.45;65.68;;;20.50;99.90;;;;;;5033829;28;20033;-62
2021/07/13 11:31:40;;;;;;;94.97;64.05;;;20.50;99.90;;;;;;5033641;28;20029;-58
2021/07/13 11:34:09;;;;;;;94.53;64.53;;;20.70;99.90;;;;;;5033617;28;20069;-58
2021/07/13 11:36:40;;;;;;;95.03;64.82;;;20.80;99.90;;;;;;5033866;28;20021;-57
2021/07/13 11:39:09;;;;;;;88.70;63.25;;;20.90;99.90;;;;;;5032369;28;20435;-56
2021/07/13 11:41:35;;;;;;;99.18;64.07;;;21.00;99.90;;;;;;5033503;28;20029;-61
2021/07/13 11:44:06;;;;;;;99.38;66.07;;;20.90;99.90;;;;;;5033620;28;20039;-63
2021/07/13 11:46:51;;;;;;;101.90;67.68;;;20.80;99.90;;;;;;5031973;28;20030;-63
2021/07/13 11:49:28;;;;;;;97.30;66.47;;;20.60;99.90;;;;;;5033337;28;20038;-60
2021/07/13 11:52:08;;;;;;;101.93;65.63;;;20.60;99.90;;;;;;5033405;28;20025;-58
2021/07/13 11:54:36;;;;;;;101.65;65.60;;;20.50;99.90;;;;;;5031592;28;20025;-58
2021/07/13 11:57:05;;;;;;;96.40;63.35;;;20.50;99.90;;;;;;5034326;28;20505;-57
2021/07/13 11:59:32;;;;;;;94.85;64.50;;;20.50;99.90;;;;;;5032752;28;20035;-57
2021/07/13 12:02:03;;;;;;;98.75;64.22;;;20.60;99.90;;;;;;5033134;28;20022;-57
2021/07/13 12:04:32;;;;;;;101.22;65.00;;;20.80;99.90;;;;;;5033424;28;20030;-56
2021/07/13 12:07:00;;;;;;;92.72;61.05;;;21.00;99.90;;;;;;5031876;28;20080;-57
2021/07/13 12:09:30;;;;;;;82.60;56.28;;;21.10;99.90;;;;;;5033357;28;20084;-56
2021/07/13 12:12:17;;;;;;;89.85;60.53;;;21.10;99.90;;;;;;5033108;28;20071;-56
2021/07/13 12:14:50;;;;;;;81.47;57.58;;;21.20;99.90;;;;;;5032781;28;20042;-56
2021/07/13 12:17:19;;;;;;;80.68;55.72;;;21.30;99.90;;;;;;5033011;28;20022;-57
2021/07/13 12:19:46;;;;;;;81.18;57.08;;;21.30;99.90;;;;;;5033124;28;20079;-56
2021/07/13 12:22:18;;;;;;;77.97;54.78;;;21.40;99.90;;;;;;5032870;28;20037;-55
2021/07/13 12:24:46;;;;;;;69.88;50.45;;;21.50;99.90;;;;;;5031861;28;20072;-55
2021/07/13 12:27:18;;;;;;;71.10;50.45;;;21.50;99.90;;;;;;5032891;28;20379;-56
2021/07/13 12:29:53;;;;;;;71.00;48.92;;;21.30;99.90;;;;;;5031762;28;20080;-56